createdAt,value
2023-01-13T00:01:35.460Z,22.80
2023-01-13T00:04:05.648Z,22.70
2023-01-13T00:06:35.968Z,22.60
2023-01-13T00:09:05.140Z,22.70
2023-01-13T00:11:34.110Z,22.70
2023-01-13T00:14:05.449Z,22.70
2023-01-13T00:16:34.411Z,22.70
2023-01-13T00:19:03.508Z,22.70
2023-01-13T00:21:32.482Z,22.60
2023-01-13T00:24:03.198Z,22.60
2023-01-13T00:26:33.758Z,22.60
2023-01-13T00:29:04.591Z,22.60
2023-01-13T00:31:33.707Z,22.60
2023-01-13T00:34:03.026Z,22.70
2023-01-13T00:36:32.551Z,22.60
2023-01-13T00:39:03.264Z,22.60
2023-01-13T00:41:52.327Z,22.60
2023-01-13T00:44:20.117Z,22.60
2023-01-13T00:46:48.764Z,22.60
2023-01-13T00:49:17.708Z,22.60
2023-01-13T00:51:47.236Z,22.60
2023-01-13T00:54:17.599Z,22.60
2023-01-13T00:56:46.187Z,22.60
2023-01-13T00:59:15.786Z,22.50
2023-01-13T01:01:44.676Z,22.50
2023-01-13T01:04:13.869Z,22.50
2023-01-13T01:06:42.633Z,22.50
2023-01-13T01:09:15.282Z,22.50
2023-01-13T01:11:45.835Z,22.50
2023-01-13T01:14:16.506Z,22.50
2023-01-13T01:16:46.036Z,22.50
2023-01-13T01:19:14.698Z,22.50
2023-01-13T01:21:43.402Z,22.50
2023-01-13T01:24:12.597Z,22.60
2023-01-13T01:26:42.061Z,22.50
2023-01-13T01:29:15.867Z,22.50
2023-01-13T01:31:45.084Z,22.50
2023-01-13T01:34:13.859Z,22.50
2023-01-13T01:36:42.507Z,22.50
2023-01-13T01:39:12.088Z,22.50
2023-01-13T01:42:00.789Z,22.50
2023-01-13T01:44:56.580Z,22.50
2023-01-13T01:47:27.619Z,22.50
2023-01-13T01:49:58.360Z,22.40
2023-01-13T01:52:33.093Z,22.40
2023-01-13T01:55:07.787Z,22.40
2023-01-13T01:57:42.125Z,22.40
2023-01-13T02:00:14.745Z,22.40
2023-01-13T02:02:47.603Z,22.40
2023-01-13T02:05:16.823Z,22.40
2023-01-13T02:07:49.098Z,22.40
2023-01-13T02:10:21.173Z,22.40
2023-01-13T02:12:50.942Z,22.40
2023-01-13T02:15:24.867Z,22.40
2023-01-13T02:18:16.468Z,22.40
2023-01-13T02:21:08.447Z,22.40
2023-01-13T02:24:52.824Z,22.40
2023-01-13T02:28:09.884Z,22.40
2023-01-13T02:31:08.818Z,22.40
2023-01-13T02:34:03.397Z,22.40
2023-01-13T02:36:40.608Z,22.30
2023-01-13T02:39:19.398Z,22.30
2023-01-13T02:42:16.252Z,22.30
2023-01-13T02:44:49.158Z,22.30
2023-01-13T02:47:22.366Z,22.30
2023-01-13T02:49:55.529Z,22.30
2023-01-13T02:52:31.075Z,22.30
2023-01-13T02:55:05.971Z,22.30
2023-01-13T02:57:37.621Z,22.30
2023-01-13T03:00:11.338Z,22.30
2023-01-13T03:02:41.951Z,22.30
2023-01-13T03:05:15.771Z,22.30
2023-01-13T03:08:15.549Z,22.30
2023-01-13T03:11:03.013Z,22.30
2023-01-13T03:14:09.336Z,22.30
2023-01-13T03:17:07.647Z,22.30
2023-01-13T03:19:46.378Z,22.30
2023-01-13T03:22:24.073Z,22.30
2023-01-13T03:25:01.665Z,22.30
2023-01-13T03:27:35.433Z,22.30
2023-01-13T03:30:08.893Z,22.30
2023-01-13T03:32:41.949Z,22.30
2023-01-13T03:35:17.811Z,22.20
2023-01-13T03:38:03.593Z,22.20
2023-01-13T03:40:37.906Z,22.20
2023-01-13T03:43:29.046Z,22.20
2023-01-13T03:46:03.109Z,22.20
2023-01-13T03:48:34.579Z,22.20
2023-01-13T03:51:08.645Z,22.20
2023-01-13T03:53:44.762Z,22.20
2023-01-13T03:56:18.791Z,22.20
2023-01-13T03:58:50.685Z,22.20
2023-01-13T04:01:25.835Z,21.90
2023-01-13T04:04:01.379Z,22.20
2023-01-13T04:06:41.530Z,22.20
2023-01-13T04:09:20.008Z,22.20
2023-01-13T04:11:56.936Z,22.20
2023-01-13T04:14:28.000Z,22.20
2023-01-13T04:16:57.726Z,22.20
2023-01-13T04:19:26.391Z,22.20
2023-01-13T04:21:56.513Z,22.20
2023-01-13T04:24:25.626Z,22.20
2023-01-13T04:26:56.464Z,22.20
2023-01-13T04:29:25.240Z,22.10
2023-01-13T04:31:54.145Z,22.10
2023-01-13T04:34:22.949Z,22.10
2023-01-13T04:36:51.498Z,22.10
2023-01-13T04:39:21.624Z,22.10
2023-01-13T04:41:59.132Z,22.40
2023-01-13T04:44:27.766Z,22.10
2023-01-13T04:46:56.346Z,22.10
2023-01-13T04:49:25.202Z,22.10
2023-01-13T04:51:55.929Z,22.10
2023-01-13T04:54:26.556Z,22.40
2023-01-13T04:56:55.435Z,22.10
2023-01-13T04:59:24.385Z,22.10
2023-01-13T05:01:53.347Z,22.10
2023-01-13T05:04:21.996Z,22.10
2023-01-13T05:06:50.854Z,22.10
2023-01-13T05:09:19.457Z,22.20
2023-01-13T05:12:06.482Z,22.10
2023-01-13T05:14:52.487Z,22.10
2023-01-13T05:17:24.720Z,22.10
2023-01-13T05:19:53.544Z,22.10
2023-01-13T05:22:39.383Z,22.10
2023-01-13T05:25:25.829Z,22.30
2023-01-13T05:27:57.971Z,22.10
2023-01-13T05:30:28.585Z,22.10
2023-01-13T05:32:57.064Z,22.10
2023-01-13T05:35:26.750Z,22.10
2023-01-13T05:37:57.020Z,22.10
2023-01-13T05:40:59.054Z,22.10
2023-01-13T05:43:30.009Z,22.10
2023-01-13T05:46:01.062Z,22.10
2023-01-13T05:48:33.042Z,22.10
2023-01-13T05:51:02.237Z,22.10
2023-01-13T05:53:31.837Z,22.00
2023-01-13T05:56:00.830Z,22.10
2023-01-13T05:58:30.777Z,22.10
2023-01-13T06:01:02.160Z,22.10
2023-01-13T06:03:30.883Z,22.10
2023-01-13T06:06:03.859Z,22.10
2023-01-13T06:08:33.407Z,22.10
2023-01-13T06:11:01.931Z,22.10
2023-01-13T06:13:31.833Z,22.10
2023-01-13T06:16:01.403Z,22.00
2023-01-13T06:18:30.536Z,22.00
2023-01-13T06:20:59.151Z,22.00
2023-01-13T06:23:28.294Z,22.10
2023-01-13T06:26:05.671Z,22.10
2023-01-13T06:28:36.228Z,22.10
2023-01-13T06:31:07.890Z,22.10
2023-01-13T06:33:40.274Z,22.20
2023-01-13T06:36:15.095Z,22.20
2023-01-13T06:38:48.545Z,22.30
2023-01-13T06:41:18.029Z,22.20
2023-01-13T06:43:48.539Z,22.20
2023-01-13T06:46:17.020Z,22.30
2023-01-13T06:48:45.556Z,22.30
2023-01-13T06:51:14.021Z,22.20
2023-01-13T06:53:42.452Z,22.20
2023-01-13T06:56:10.884Z,22.20
2023-01-13T06:58:39.330Z,22.20
2023-01-13T07:01:09.676Z,22.20
2023-01-13T07:03:38.176Z,22.40
2023-01-13T07:06:07.603Z,22.30
2023-01-13T07:08:36.272Z,22.30
2023-01-13T07:11:05.116Z,22.40
2023-01-13T07:13:53.116Z,22.40
2023-01-13T07:16:24.367Z,22.40
2023-01-13T07:18:52.854Z,22.40
2023-01-13T07:21:22.033Z,22.30
2023-01-13T07:23:50.554Z,22.30
2023-01-13T07:26:19.031Z,22.30
2023-01-13T07:28:47.458Z,22.30
2023-01-13T07:31:18.289Z,22.20
2023-01-13T07:33:48.962Z,22.20
2023-01-13T07:36:17.453Z,22.20
2023-01-13T07:38:46.005Z,22.20
2023-01-13T07:41:32.923Z,22.20
2023-01-13T07:44:05.166Z,22.20
2023-01-13T07:46:34.170Z,22.20
2023-01-13T07:49:04.583Z,22.20
2023-01-13T07:51:33.321Z,22.20
2023-01-13T07:54:02.266Z,22.20
2023-01-13T07:56:30.767Z,22.30
2023-01-13T07:59:00.900Z,22.40
2023-01-13T08:01:32.142Z,22.50
2023-01-13T08:04:00.837Z,22.50
2023-01-13T08:06:30.767Z,22.40
2023-01-13T08:09:00.126Z,22.50
2023-01-13T08:11:28.587Z,22.50
2023-01-13T08:13:58.831Z,22.50
2023-01-13T08:16:27.945Z,22.50
2023-01-13T08:18:56.425Z,22.40
2023-01-13T08:21:24.894Z,22.40
2023-01-13T08:23:55.006Z,22.40
2023-01-13T08:26:23.466Z,22.50
2023-01-13T08:28:52.217Z,22.50
2023-01-13T08:31:20.822Z,22.50
2023-01-13T08:33:49.407Z,22.50
2023-01-13T08:36:18.635Z,22.50
2023-01-13T08:38:47.187Z,22.50
2023-01-13T08:41:38.724Z,22.50
2023-01-13T08:44:09.203Z,22.50
2023-01-13T08:46:38.209Z,22.50
2023-01-13T08:49:06.848Z,22.50
2023-01-13T08:51:35.328Z,22.50
2023-01-13T08:54:04.106Z,22.50
2023-01-13T08:56:35.690Z,22.50
2023-01-13T08:59:04.921Z,22.50
2023-01-13T09:01:34.163Z,22.40
2023-01-13T09:04:02.922Z,22.40
2023-01-13T09:06:31.491Z,22.40
2023-01-13T09:09:02.333Z,22.30
2023-01-13T09:11:54.024Z,22.40
2023-01-13T09:14:28.374Z,22.40
2023-01-13T09:16:56.920Z,22.10
2023-01-13T09:19:25.440Z,22.30
2023-01-13T09:21:56.625Z,22.30
2023-01-13T09:24:26.520Z,22.30
2023-01-13T09:26:57.393Z,22.30
2023-01-13T09:29:26.117Z,22.30
2023-01-13T09:31:54.761Z,22.30
2023-01-13T09:34:40.808Z,22.30
2023-01-13T09:37:10.754Z,22.30
2023-01-13T09:39:40.694Z,22.30
2023-01-13T09:42:39.097Z,22.30
2023-01-13T09:45:15.543Z,22.30
2023-01-13T09:47:53.174Z,22.30
2023-01-13T09:50:38.009Z,22.40
2023-01-13T09:53:08.793Z,22.40
2023-01-13T09:55:38.238Z,22.50
2023-01-13T09:58:16.780Z,22.50
2023-01-13T10:00:54.833Z,22.50
2023-01-13T10:03:27.139Z,22.50
2023-01-13T10:06:04.579Z,22.50
2023-01-13T10:08:36.218Z,22.50
2023-01-13T10:11:33.358Z,22.50
2023-01-13T10:14:11.126Z,22.40
2023-01-13T10:16:46.904Z,22.40
2023-01-13T10:19:23.774Z,22.40
2023-01-13T10:22:32.168Z,22.40
2023-01-13T10:25:28.223Z,22.40
2023-01-13T10:28:04.417Z,22.50
2023-01-13T10:30:40.180Z,22.50
2023-01-13T10:33:14.806Z,22.50
2023-01-13T10:36:13.764Z,22.60
2023-01-13T10:38:45.181Z,22.60
2023-01-13T10:41:26.687Z,22.60
2023-01-13T10:44:04.586Z,22.60
2023-01-13T10:46:51.161Z,22.70
2023-01-13T10:49:32.669Z,22.70
2023-01-13T10:52:02.043Z,22.60
2023-01-13T10:54:31.399Z,22.60
2023-01-13T10:57:22.630Z,22.50
2023-01-13T10:59:53.099Z,22.50
2023-01-13T11:02:29.429Z,22.50
2023-01-13T11:05:11.923Z,22.50
2023-01-13T11:07:42.792Z,22.60
2023-01-13T11:10:22.327Z,22.50
2023-01-13T11:13:04.409Z,22.40
2023-01-13T11:15:43.976Z,22.40
2023-01-13T11:18:25.754Z,22.40
2023-01-13T11:20:56.643Z,22.40
2023-01-13T11:23:31.629Z,22.40
2023-01-13T11:26:05.413Z,22.40
2023-01-13T11:28:47.364Z,22.40
2023-01-13T11:31:25.599Z,22.40
2023-01-13T11:34:02.600Z,22.40
2023-01-13T11:36:38.767Z,22.40
2023-01-13T11:39:22.272Z,22.30
2023-01-13T11:42:16.340Z,22.30
2023-01-13T11:44:50.606Z,22.30
2023-01-13T11:47:24.796Z,22.30
2023-01-13T11:49:55.105Z,22.30
2023-01-13T11:52:33.116Z,22.30
2023-01-13T11:55:16.393Z,22.30
2023-01-13T11:58:54.351Z,22.30
2023-01-13T12:02:00.669Z,22.30
2023-01-13T12:04:35.532Z,22.30
2023-01-13T12:07:20.727Z,22.30
2023-01-13T12:10:05.170Z,22.30
2023-01-13T12:12:47.499Z,22.20
2023-01-13T12:16:00.663Z,22.20
2023-01-13T12:19:00.584Z,22.20
2023-01-13T12:21:34.173Z,22.20
2023-01-13T12:24:15.231Z,22.30
2023-01-13T12:26:52.147Z,22.20
2023-01-13T12:29:27.396Z,22.20
2023-01-13T12:31:56.462Z,22.20
2023-01-13T12:34:40.892Z,22.30
2023-01-13T12:37:18.401Z,22.20
2023-01-13T12:40:04.363Z,22.20
2023-01-13T12:43:02.099Z,22.20
2023-01-13T12:45:32.799Z,22.20
2023-01-13T12:48:02.387Z,22.20
2023-01-13T12:50:43.235Z,22.30
2023-01-13T12:53:41.621Z,22.30
2023-01-13T12:56:44.699Z,22.40
2023-01-13T12:59:49.938Z,22.40
2023-01-13T13:02:39.977Z,22.30
2023-01-13T13:05:47.877Z,22.40
2023-01-13T13:08:32.314Z,22.40
2023-01-13T13:11:35.719Z,22.50
2023-01-13T13:14:08.491Z,22.50
2023-01-13T13:16:56.142Z,22.50
2023-01-13T13:19:52.808Z,22.50
2023-01-13T13:22:40.139Z,22.40
2023-01-13T13:25:28.653Z,22.40
2023-01-13T13:28:20.216Z,22.40
2023-01-13T13:31:18.373Z,22.40
2023-01-13T13:34:06.997Z,22.40
2023-01-13T13:37:05.269Z,22.30
2023-01-13T13:39:52.338Z,22.30
2023-01-13T13:42:53.965Z,22.40
2023-01-13T13:45:43.046Z,22.30
2023-01-13T13:48:26.721Z,22.30
2023-01-13T13:51:01.890Z,22.30
2023-01-13T13:53:34.144Z,22.30
2023-01-13T13:56:07.457Z,22.30
2023-01-13T13:58:37.255Z,22.30
2023-01-13T14:01:07.447Z,22.40
2023-01-13T14:03:40.238Z,22.60
2023-01-13T14:06:22.397Z,22.30
2023-01-13T14:08:52.053Z,22.30
2023-01-13T14:11:29.080Z,22.30
2023-01-13T14:14:05.897Z,22.20
2023-01-13T14:16:36.489Z,22.30
2023-01-13T14:19:06.665Z,22.20
2023-01-13T14:21:35.126Z,22.20
2023-01-13T14:24:14.618Z,22.20
2023-01-13T14:26:43.524Z,22.20
2023-01-13T14:29:19.482Z,22.20
2023-01-13T14:31:48.870Z,22.20
2023-01-13T14:34:32.438Z,22.20
2023-01-13T14:37:03.033Z,22.20
2023-01-13T14:39:41.557Z,22.20
2023-01-13T14:42:14.580Z,21.80
2023-01-13T14:44:47.385Z,22.10
2023-01-13T14:47:26.855Z,22.10
2023-01-13T14:50:02.656Z,22.10
2023-01-13T14:52:33.837Z,22.10
2023-01-13T14:55:24.796Z,22.10
2023-01-13T14:57:53.364Z,22.20
2023-01-13T15:00:28.329Z,22.20
2023-01-13T15:03:08.560Z,22.20
2023-01-13T15:05:49.970Z,22.20
2023-01-13T15:08:37.615Z,22.30
2023-01-13T15:11:09.445Z,22.30
2023-01-13T15:13:53.129Z,22.30
2023-01-13T15:16:25.142Z,22.30
2023-01-13T15:18:54.156Z,22.30
2023-01-13T15:21:25.139Z,22.30
2023-01-13T15:23:53.812Z,22.30
2023-01-13T15:26:26.057Z,22.30
2023-01-13T15:28:56.562Z,22.30
2023-01-13T15:31:26.114Z,22.60
2023-01-13T15:33:55.360Z,22.30
2023-01-13T15:36:28.910Z,22.30
2023-01-13T15:38:57.940Z,22.30
2023-01-13T15:41:40.839Z,22.30
2023-01-13T15:44:29.273Z,22.30
2023-01-13T15:46:59.163Z,22.30
2023-01-13T15:49:35.010Z,22.30
2023-01-13T15:52:19.483Z,22.30
2023-01-13T15:54:48.015Z,22.30
2023-01-13T15:57:23.292Z,22.30
2023-01-13T15:59:54.206Z,22.20
2023-01-13T16:02:25.476Z,22.20
2023-01-13T16:04:55.105Z,22.00
2023-01-13T16:07:26.782Z,22.20
2023-01-13T16:09:55.565Z,22.20
2023-01-13T16:12:24.449Z,22.20
2023-01-13T16:14:53.140Z,22.20
2023-01-13T16:17:29.579Z,22.20
2023-01-13T16:19:58.278Z,22.20
2023-01-13T16:24:57.570Z,22.20
2023-01-13T16:27:27.012Z,22.20
2023-01-13T16:29:57.473Z,22.20
2023-01-13T16:32:26.028Z,22.20
2023-01-13T16:34:54.547Z,22.20
2023-01-13T16:37:26.384Z,22.20
2023-01-13T16:39:56.922Z,22.30
2023-01-13T16:42:26.044Z,22.30
2023-01-13T16:44:54.713Z,22.30
2023-01-13T16:47:24.241Z,22.30
2023-01-13T16:49:52.834Z,22.40
2023-01-13T16:52:21.361Z,22.40
2023-01-13T16:54:49.993Z,22.50
2023-01-13T16:57:20.209Z,22.40
2023-01-13T16:59:49.859Z,22.40
2023-01-13T17:02:21.034Z,22.50
2023-01-13T17:04:50.091Z,22.50
2023-01-13T17:07:19.965Z,22.40
2023-01-13T17:09:49.483Z,22.40
2023-01-13T17:12:20.435Z,22.40
2023-01-13T17:14:49.770Z,22.40
2023-01-13T17:17:23.814Z,22.30
2023-01-13T17:19:53.271Z,22.30
2023-01-13T17:22:23.083Z,22.30
2023-01-13T17:24:51.900Z,22.30
2023-01-13T17:27:23.011Z,22.30
2023-01-13T17:29:52.259Z,22.30
2023-01-13T17:32:23.037Z,22.30
2023-01-13T17:34:53.763Z,22.30
2023-01-13T17:37:22.502Z,22.50
2023-01-13T17:39:51.205Z,22.30
2023-01-13T17:42:22.408Z,22.30
2023-01-13T17:44:51.975Z,22.30
2023-01-13T17:47:20.696Z,22.30
2023-01-13T17:49:49.228Z,22.30
2023-01-13T17:52:18.082Z,22.30
2023-01-13T17:54:46.602Z,22.30
2023-01-13T17:57:15.117Z,22.20
2023-01-13T17:59:46.945Z,22.20
2023-01-13T18:02:16.387Z,22.20
2023-01-13T18:04:45.677Z,22.20
2023-01-13T18:07:14.195Z,22.20
2023-01-13T18:09:43.782Z,22.10
2023-01-13T18:12:12.270Z,22.10
2023-01-13T18:14:40.726Z,22.10
2023-01-13T18:17:10.875Z,22.10
2023-01-13T18:20:08.334Z,22.10
2023-01-13T18:22:54.211Z,22.10
2023-01-13T18:25:39.931Z,22.10
2023-01-13T18:28:08.386Z,22.10
2023-01-13T18:30:36.900Z,22.10
2023-01-13T18:33:06.786Z,22.10
2023-01-13T18:35:35.356Z,22.10
2023-01-13T18:38:03.815Z,22.10
2023-01-13T18:40:32.616Z,22.10
2023-01-13T18:43:00.442Z,22.10
2023-01-13T18:45:31.710Z,22.10
2023-01-13T18:48:03.145Z,22.10
2023-01-13T18:50:35.697Z,22.10
2023-01-13T18:53:04.381Z,22.10
2023-01-13T18:55:33.913Z,22.00
2023-01-13T18:58:02.398Z,22.00
2023-01-13T19:00:36.485Z,22.00
2023-01-13T19:05:38.260Z,22.00
2023-01-13T19:08:07.676Z,22.00
2023-01-13T19:10:37.643Z,22.00
2023-01-13T19:13:06.367Z,22.00
2023-01-13T19:15:38.289Z,22.00
2023-01-13T19:18:07.080Z,22.00
2023-01-13T19:20:38.589Z,22.00
2023-01-13T19:23:07.037Z,22.10
2023-01-13T19:25:36.044Z,22.10
2023-01-13T19:28:05.048Z,22.00
2023-01-13T19:30:33.813Z,22.00
2023-01-13T19:33:02.251Z,22.00
2023-01-13T19:35:30.987Z,22.00
2023-01-13T19:38:01.027Z,22.00
2023-01-13T19:40:29.943Z,22.00
2023-01-13T19:43:15.902Z,22.00
2023-01-13T19:45:44.956Z,22.10
2023-01-13T19:48:16.137Z,22.10
2023-01-13T19:50:44.832Z,22.30
2023-01-13T19:53:18.668Z,22.20
2023-01-13T19:55:48.600Z,22.20
2023-01-13T19:58:18.769Z,22.20
2023-01-13T20:00:48.553Z,22.20
2023-01-13T20:03:17.749Z,22.20
2023-01-13T20:05:46.193Z,22.30
2023-01-13T20:08:16.328Z,22.30
2023-01-13T20:10:46.528Z,22.40
2023-01-13T20:13:15.704Z,22.50
2023-01-13T20:15:44.473Z,22.50
2023-01-13T20:18:13.021Z,22.50
2023-01-13T20:20:41.511Z,22.50
2023-01-13T20:23:10.981Z,22.50
2023-01-13T20:25:43.625Z,22.50
2023-01-13T20:28:12.017Z,22.50
2023-01-13T20:30:41.671Z,22.50
2023-01-13T20:33:10.283Z,22.50
2023-01-13T20:35:38.782Z,22.50
2023-01-13T20:38:07.324Z,22.50
2023-01-13T20:40:35.893Z,22.50
2023-01-13T20:43:05.723Z,22.60
2023-01-13T20:45:34.568Z,22.60
2023-01-13T20:48:03.200Z,22.60
2023-01-13T20:50:31.759Z,22.60
2023-01-13T20:53:00.307Z,22.60
2023-01-13T20:55:28.963Z,22.60
2023-01-13T20:57:57.424Z,22.60
2023-01-13T21:00:29.228Z,22.60
2023-01-13T21:02:57.854Z,22.70
2023-01-13T21:05:28.336Z,22.70
2023-01-13T21:07:56.835Z,22.70
2023-01-13T21:10:25.344Z,22.70
2023-01-13T21:13:19.663Z,22.70
2023-01-13T21:15:50.088Z,22.70
2023-01-13T21:18:36.041Z,22.70
2023-01-13T21:21:13.075Z,22.70
2023-01-13T21:23:42.726Z,22.70
2023-01-13T21:26:12.261Z,22.70
2023-01-13T21:28:40.900Z,22.70
2023-01-13T21:31:11.635Z,22.70
2023-01-13T21:33:41.315Z,22.70
2023-01-13T21:36:13.212Z,22.70
2023-01-13T21:38:41.968Z,22.70
2023-01-13T21:41:14.289Z,22.70
2023-01-13T21:44:00.126Z,22.70
2023-01-13T21:46:47.641Z,22.70
2023-01-13T21:49:16.118Z,22.70
2023-01-13T21:51:45.013Z,22.70
2023-01-13T21:54:13.701Z,22.70
2023-01-13T21:56:42.350Z,22.80
2023-01-13T21:59:10.913Z,22.80
2023-01-13T22:01:45.940Z,22.80
2023-01-13T22:04:29.475Z,22.80
2023-01-13T22:07:04.549Z,22.80
2023-01-13T22:09:34.740Z,22.70
2023-01-13T22:12:03.453Z,22.70
2023-01-13T22:14:32.310Z,22.70
2023-01-13T22:17:03.829Z,22.60
2023-01-13T22:19:32.400Z,22.60
2023-01-13T22:22:01.023Z,22.50
2023-01-13T22:24:30.265Z,22.50
2023-01-13T22:26:58.670Z,22.50
2023-01-13T22:29:27.099Z,22.50
2023-01-13T22:31:55.603Z,22.50
2023-01-13T22:34:25.527Z,22.40
2023-01-13T22:36:53.959Z,22.40
2023-01-13T22:39:22.591Z,22.40
2023-01-13T22:41:51.057Z,22.30
2023-01-13T22:44:19.855Z,22.30
2023-01-13T22:46:48.847Z,22.30
2023-01-13T22:49:18.581Z,22.40
2023-01-13T22:51:48.992Z,22.40
2023-01-13T22:54:19.444Z,22.40
2023-01-13T22:56:49.031Z,22.40
2023-01-13T22:59:17.911Z,22.40
2023-01-13T23:01:46.489Z,22.40
2023-01-13T23:04:15.129Z,22.30
2023-01-13T23:06:43.705Z,22.30
2023-01-13T23:09:13.622Z,22.30
2023-01-13T23:11:42.914Z,22.30
2023-01-13T23:14:13.402Z,22.30
2023-01-13T23:16:42.548Z,22.30
2023-01-13T23:19:12.335Z,22.30
2023-01-13T23:21:41.885Z,22.30
2023-01-13T23:24:12.896Z,22.20
2023-01-13T23:26:41.827Z,22.20
2023-01-13T23:29:14.260Z,22.20
2023-01-13T23:31:43.192Z,22.20
2023-01-13T23:34:11.756Z,22.20
2023-01-13T23:36:41.794Z,22.20
2023-01-13T23:39:10.391Z,22.20
2023-01-13T23:41:40.356Z,22.20
2023-01-13T23:44:08.879Z,22.20
2023-01-13T23:46:37.814Z,22.20
2023-01-13T23:49:06.846Z,22.20
2023-01-13T23:51:36.158Z,22.20
2023-01-13T23:54:05.186Z,22.20
2023-01-13T23:56:34.942Z,22.20
2023-01-13T23:59:04.734Z,22.20
